Time;durP1;ratioP1;P1;durP2;ratioP2;P2;SDS_P1;SDS_P2;PMS_P1;PMS_P2;Temp;Humidity;BMP_temperature;BMP_pressure;BME280_temperature;BME280_humidity;BME280_pressure;Samples;Min_cycle;Max_cycle;Signal;HPM_P1;HPM_P2
2022/01/30 00:01:31;;;;;;;;;;;14.00;99.90;;;;;;4978175;28;789;-52
2022/01/30 00:03:57;;;;;;;;;;;13.90;99.90;;;;;;5056806;28;1027;-52
2022/01/30 00:06:23;;;;;;;;;;;13.90;99.90;;;;;;5058384;28;924;-52
2022/01/30 00:08:49;;;;;;;;;;;13.90;99.90;;;;;;5058198;28;878;-52
2022/01/30 00:11:20;;;;;;;;;;;13.90;99.90;;;;;;5058180;28;821;-52
2022/01/30 00:13:46;;;;;;;;;;;13.90;99.90;;;;;;5057929;28;928;-52
2022/01/30 00:16:17;;;;;;;;;;;13.90;99.90;;;;;;5040350;28;897;-52
2022/01/30 00:18:58;;;;;;;;;;;13.90;99.90;;;;;;5054911;28;971;-53
2022/01/30 00:24:14;;;;;;;;;;;13.80;99.90;;;;;;5057972;28;778;-53
2022/01/30 00:26:42;;;;;;;;;;;13.80;99.90;;;;;;5021657;28;1255;-53
2022/01/30 00:29:08;;;;;;;;;;;13.80;99.90;;;;;;5057500;28;898;-53
2022/01/30 00:31:34;;;;;;;;;;;13.80;99.90;;;;;;5057433;28;1975;-52
2022/01/30 00:34:01;;;;;;;;;;;13.80;99.90;;;;;;5053746;28;1728;-53
2022/01/30 00:36:30;;;;;;;;;;;13.70;99.90;;;;;;5057681;28;1023;-52
2022/01/30 00:38:59;;;;;;;;;;;13.70;99.90;;;;;;5054334;28;858;-53
2022/01/30 00:41:26;;;;;;;;;;;13.70;99.90;;;;;;5057124;28;966;-53
2022/01/30 00:43:53;;;;;;;;;;;13.70;99.90;;;;;;5057725;28;841;-52
2022/01/30 00:46:20;;;;;;;;;;;13.70;99.90;;;;;;5057653;28;783;-52
2022/01/30 00:48:47;;;;;;;;;;;13.70;99.90;;;;;;5057626;28;872;-46
2022/01/30 00:51:15;;;;;;;;;;;13.70;99.90;;;;;;5054854;28;1313;-46
2022/01/30 00:53:41;;;;;;;;;;;13.60;99.90;;;;;;5057583;28;1906;-46
2022/01/30 00:56:08;;;;;;;;;;;13.60;99.90;;;;;;5039204;28;1247;-46
2022/01/30 00:58:33;;;;;;;;;;;13.60;99.90;;;;;;5039595;28;842;-46
2022/01/30 01:00:59;;;;;;;;;;;13.60;99.90;;;;;;5057162;28;1030;-46
2022/01/30 01:03:25;;;;;;;;;;;13.60;99.90;;;;;;5057321;28;836;-46
2022/01/30 01:05:52;;;;;;;;;;;13.60;99.90;;;;;;5057556;28;805;-46
2022/01/30 01:08:29;;;;;;;;;;;13.60;99.90;;;;;;5057062;28;801;-46
2022/01/30 01:11:10;;;;;;;;;;;13.50;99.90;;;;;;5057155;28;970;-46
2022/01/30 01:13:58;;;;;;;;;;;13.50;99.90;;;;;;5057061;28;1965;-46
2022/01/30 01:24:11;;;;;;;;;;;13.50;99.90;;;;;;5056716;28;880;-53
2022/01/30 01:26:38;;;;;;;;;;;13.50;99.90;;;;;;5057125;28;760;-53
2022/01/30 01:29:05;;;;;;;;;;;13.40;99.90;;;;;;5056400;28;925;-53
2022/01/30 01:31:31;;;;;;;;;;;13.40;99.90;;;;;;5055736;28;1902;-53
2022/01/30 01:36:27;;;;;;;;;;;13.40;99.90;;;;;;5056954;28;806;-46
2022/01/30 01:38:54;;;;;;;;;;;13.40;99.90;;;;;;5056497;28;793;-53
2022/01/30 01:41:21;;;;;;;;;;;13.30;99.90;;;;;;5056717;28;897;-52
2022/01/30 01:43:49;;;;;;;;;;;13.40;99.90;;;;;;5056369;28;966;-53
2022/01/30 01:46:21;;;;;;;;;;;13.40;99.90;;;;;;5056727;28;804;-53
2022/01/30 01:48:50;;;;;;;;;;;13.30;99.90;;;;;;5038674;28;989;-53
2022/01/30 01:51:20;;;;;;;;;;;13.30;99.90;;;;;;5056695;28;878;-53
2022/01/30 01:53:48;;;;;;;;;;;13.30;99.90;;;;;;5056239;28;1909;-53
2022/01/30 01:56:15;;;;;;;;;;;13.30;99.90;;;;;;5056144;28;856;-53
2022/01/30 01:58:41;;;;;;;;;;;13.30;99.90;;;;;;5056283;28;812;-54
2022/01/30 02:01:08;;;;;;;;;;;13.20;99.90;;;;;;5055957;28;1759;-53
2022/01/30 02:03:37;;;;;;;;;;;13.20;99.90;;;;;;5055677;28;815;-54
2022/01/30 02:06:05;;;;;;;;;;;13.30;99.90;;;;;;5055952;28;1237;-53
2022/01/30 02:08:37;;;;;;;;;;;13.20;99.90;;;;;;5055485;28;970;-47
2022/01/30 02:26:55;;;;;;;;;;;13.10;99.90;;;;;;5055958;28;923;-46
2022/01/30 02:29:21;;;;;;;;;;;13.10;99.90;;;;;;5038060;28;850;-53
2022/01/30 02:31:47;;;;;;;;;;;13.10;99.90;;;;;;5052542;28;1981;-53
2022/01/30 02:34:13;;;;;;;;;;;13.10;99.90;;;;;;5055044;28;970;-46
2022/01/30 02:36:45;;;;;;;;;;;13.10;99.90;;;;;;5055800;28;856;-53
2022/01/30 02:39:11;;;;;;;;;;;13.10;99.90;;;;;;5051700;28;1012;-53
2022/01/30 02:41:39;;;;;;;;;;;13.00;99.90;;;;;;5037728;28;894;-53
2022/01/30 02:46:40;;;;;;;;;;;13.00;99.90;;;;;;5055798;28;852;-54
2022/01/30 02:51:52;;;;;;;;;;;13.00;99.90;;;;;;5055803;28;1973;-53
2022/01/30 02:54:18;;;;;;;;;;;13.00;99.90;;;;;;5055370;28;1392;-53
2022/01/30 02:56:44;;;;;;;;;;;13.00;99.90;;;;;;5055462;28;800;-53
2022/01/30 02:59:10;;;;;;;;;;;13.00;99.90;;;;;;5055292;28;1264;-53
2022/01/30 03:01:37;;;;;;;;;;;13.00;99.90;;;;;;5053252;28;1221;-53
2022/01/30 03:04:04;;;;;;;;;;;12.90;99.90;;;;;;5055497;28;871;-53
2022/01/30 03:06:30;;;;;;;;;;;12.90;99.90;;;;;;5055483;28;753;-53
2022/01/30 03:08:56;;;;;;;;;;;12.90;99.90;;;;;;5055304;28;1023;-53
2022/01/30 03:11:22;;;;;;;;;;;12.90;99.90;;;;;;5054768;28;925;-53
2022/01/30 03:13:48;;;;;;;;;;;12.90;99.90;;;;;;5055866;28;1910;-53
2022/01/30 03:16:14;;;;;;;;;;;12.90;99.90;;;;;;5059338;28;761;-53
2022/01/30 03:18:40;;;;;;;;;;;12.90;99.90;;;;;;5059519;28;805;-53
2022/01/30 03:21:07;;;;;;;;;;;12.90;99.90;;;;;;5059109;28;936;-53
2022/01/30 03:23:37;;;;;;;;;;;12.80;99.90;;;;;;5059261;28;1020;-53
2022/01/30 03:26:03;;;;;;;;;;;12.90;99.90;;;;;;5054418;28;872;-53
2022/01/30 03:28:32;;;;;;;;;;;12.80;99.90;;;;;;5058898;28;893;-53
2022/01/30 03:31:05;;;;;;;;;;;12.80;99.90;;;;;;5059075;28;880;-53
2022/01/30 03:33:31;;;;;;;;;;;12.80;99.90;;;;;;5055740;28;1911;-53
2022/01/30 03:35:57;;;;;;;;;;;12.80;99.90;;;;;;5058962;28;806;-53
2022/01/30 03:38:23;;;;;;;;;;;12.80;99.90;;;;;;5058445;28;831;-53
2022/01/30 03:40:49;;;;;;;;;;;12.80;99.90;;;;;;5058989;28;749;-53
2022/01/30 03:43:15;;;;;;;;;;;12.70;99.90;;;;;;5058763;28;786;-53
2022/01/30 03:45:42;;;;;;;;;;;12.70;99.90;;;;;;5058825;28;796;-53
2022/01/30 03:48:08;;;;;;;;;;;12.70;99.90;;;;;;5058767;28;872;-46
2022/01/30 03:50:34;;;;;;;;;;;12.70;99.90;;;;;;5040680;28;974;-46
2022/01/30 03:53:00;;;;;;;;;;;12.70;99.90;;;;;;5058517;28;1909;-46
2022/01/30 03:55:26;;;;;;;;;;;12.70;99.90;;;;;;5058683;28;911;-46
2022/01/30 03:57:52;;;;;;;;;;;12.70;99.90;;;;;;5058859;28;786;-53
2022/01/30 04:00:18;;;;;;;;;;;12.70;99.90;;;;;;5056589;28;1084;-53
2022/01/30 04:02:44;;;;;;;;;;;12.70;99.90;;;;;;5058660;28;873;-46
2022/01/30 04:05:12;;;;;;;;;;;12.60;99.90;;;;;;5040528;28;1060;-46
2022/01/30 04:07:39;;;;;;;;;;;12.60;99.90;;;;;;5058307;28;877;-46
2022/01/30 04:10:05;;;;;;;;;;;12.60;99.90;;;;;;5058046;28;841;-46
2022/01/30 04:12:32;;;;;;;;;;;12.60;99.90;;;;;;5058244;28;1913;-46
2022/01/30 04:14:58;;;;;;;;;;;12.60;99.90;;;;;;5058162;28;931;-46
2022/01/30 04:17:24;;;;;;;;;;;12.60;99.90;;;;;;5058452;28;809;-46
2022/01/30 04:19:50;;;;;;;;;;;12.60;99.90;;;;;;5058235;28;758;-46
2022/01/30 04:22:17;;;;;;;;;;;12.60;99.90;;;;;;5057643;28;967;-46
2022/01/30 04:24:43;;;;;;;;;;;12.60;99.90;;;;;;5057968;28;884;-46
2022/01/30 04:27:10;;;;;;;;;;;12.60;99.90;;;;;;5054967;28;1266;-46
2022/01/30 04:29:37;;;;;;;;;;;12.50;99.90;;;;;;5057968;28;757;-46
2022/01/30 04:32:04;;;;;;;;;;;12.50;99.90;;;;;;5023563;28;1902;-46
2022/01/30 04:34:30;;;;;;;;;;;12.50;99.90;;;;;;5057281;28;1024;-46
2022/01/30 04:58:53;;;;;;;;;;;12.40;99.90;;;;;;5057713;28;753;-53
2022/01/30 05:02:02;;;;;;;;;;;12.40;99.90;;;;;;5056966;28;1063;-53
2022/01/30 05:04:23;;;;;;;;;;;12.40;99.90;;;;;;5052529;28;1422;-53
2022/01/30 05:09:28;;;;;;;;;;;12.40;99.90;;;;;;5059211;28;816;-46
2022/01/30 05:11:54;;;;;;;;;;;12.40;99.90;;;;;;5056862;28;964;-46
2022/01/30 05:14:23;;;;;;;;;;;12.40;99.90;;;;;;5056728;28;1973;-46
2022/01/30 05:16:49;;;;;;;;;;;12.40;99.90;;;;;;5056800;28;1081;-46
2022/01/30 05:19:15;;;;;;;;;;;12.40;99.90;;;;;;5057212;28;809;-53
2022/01/30 05:21:42;;;;;;;;;;;12.40;99.90;;;;;;5056572;28;928;-46
2022/01/30 05:24:09;;;;;;;;;;;12.40;99.90;;;;;;5056472;28;1020;-46
2022/01/30 05:26:39;;;;;;;;;;;12.40;99.90;;;;;;5056777;28;940;-46
2022/01/30 05:29:05;;;;;;;;;;;12.40;99.90;;;;;;5038969;28;857;-53
2022/01/30 05:31:31;;;;;;;;;;;12.40;99.90;;;;;;5056752;28;825;-53
2022/01/30 05:33:57;;;;;;;;;;;12.30;99.90;;;;;;5038858;28;1969;-53
2022/01/30 05:36:23;;;;;;;;;;;12.30;99.90;;;;;;5056538;28;743;-46
2022/01/30 05:38:51;;;;;;;;;;;12.30;99.90;;;;;;5056684;28;791;-46
2022/01/30 05:41:19;;;;;;;;;;;12.30;99.90;;;;;;5056364;28;1047;-53
2022/01/30 05:43:53;;;;;;;;;;;12.30;99.90;;;;;;5056661;28;1043;-53
2022/01/30 05:46:28;;;;;;;;;;;12.30;99.90;;;;;;5038644;28;935;-53
2022/01/30 05:48:54;;;;;;;;;;;12.30;99.90;;;;;;5056178;28;894;-46
2022/01/30 05:51:20;;;;;;;;;;;12.30;99.90;;;;;;5056412;28;797;-53
2022/01/30 05:53:46;;;;;;;;;;;12.30;99.90;;;;;;5056461;28;1902;-52
2022/01/30 05:56:14;;;;;;;;;;;12.30;99.90;;;;;;5056261;28;753;-53
2022/01/30 05:58:40;;;;;;;;;;;12.30;99.90;;;;;;5056559;28;813;-53
2022/01/30 06:01:05;;;;;;;;;;;12.30;99.90;;;;;;5055528;28;1082;-53
2022/01/30 06:03:31;;;;;;;;;;;12.30;99.90;;;;;;5056246;28;998;-53
2022/01/30 06:05:57;;;;;;;;;;;12.20;99.90;;;;;;5056208;28;833;-53
2022/01/30 06:11:09;;;;;;;;;;;12.20;99.90;;;;;;5056199;28;797;-46
2022/01/30 06:13:35;;;;;;;;;;;12.20;99.90;;;;;;5056321;28;1914;-52
2022/01/30 06:16:02;;;;;;;;;;;12.20;99.90;;;;;;5055632;28;1133;-52
2022/01/30 06:18:28;;;;;;;;;;;12.20;99.90;;;;;;5054213;28;1254;-53
2022/01/30 06:20:54;;;;;;;;;;;12.20;99.90;;;;;;5056026;28;888;-53
2022/01/30 06:23:22;;;;;;;;;;;12.20;99.90;;;;;;5055755;28;1670;-53
2022/01/30 06:25:49;;;;;;;;;;;12.20;99.90;;;;;;5055364;28;960;-53
2022/01/30 06:28:15;;;;;;;;;;;12.20;99.90;;;;;;5056210;28;788;-46
2022/01/30 06:30:41;;;;;;;;;;;12.10;99.90;;;;;;5056061;28;852;-53
2022/01/30 06:33:07;;;;;;;;;;;12.20;99.90;;;;;;5014389;28;2047;-46
2022/01/30 06:35:33;;;;;;;;;;;12.10;99.90;;;;;;4997770;28;915;-46
2022/01/30 06:38:01;;;;;;;;;;;12.10;99.90;;;;;;5013625;28;1280;-46
2022/01/30 06:40:26;;;;;;;;;;;12.10;99.90;;;;;;5014522;28;1000;-52
2022/01/30 06:42:52;;;;;;;;;;;12.10;99.90;;;;;;5014608;28;821;-46
2022/01/30 06:45:19;;;;;;;;;;;12.10;99.90;;;;;;5014437;28;883;-46
2022/01/30 06:47:46;;;;;;;;;;;12.10;99.90;;;;;;5011678;28;1664;-46
2022/01/30 06:50:12;;;;;;;;;;;12.10;99.90;;;;;;5017174;28;883;-53
2022/01/30 06:52:38;;;;;;;;;;;12.10;99.90;;;;;;5018538;28;1910;-46
2022/01/30 06:55:05;;;;;;;;;;;12.10;99.90;;;;;;5018207;28;917;-46
2022/01/30 06:57:31;;;;;;;;;;;12.10;99.90;;;;;;5018294;28;898;-46
2022/01/30 06:59:57;;;;;;;;;;;12.10;99.90;;;;;;5012819;28;1106;-46
2022/01/30 07:02:24;;;;;;;;;;;12.10;99.90;;;;;;5018609;28;1042;-53
2022/01/30 07:04:50;;;;;;;;;;;12.00;99.90;;;;;;5050978;28;1455;-46
2022/01/30 07:07:16;;;;;;;;;;;12.10;99.90;;;;;;5059762;28;818;-46
2022/01/30 07:09:42;;;;;;;;;;;12.00;99.90;;;;;;5059443;28;833;-46
2022/01/30 07:12:09;;;;;;;;;;;12.00;99.90;;;;;;5058610;28;1013;-52
2022/01/30 07:14:34;;;;;;;;;;;12.00;99.90;;;;;;5058872;28;1906;-46
2022/01/30 07:17:00;;;;;;;;;;;12.00;99.90;;;;;;5059592;28;871;-46
2022/01/30 07:19:26;;;;;;;;;;;12.00;99.90;;;;;;5059356;28;778;-53
2022/01/30 07:21:54;;;;;;;;;;;12.00;99.90;;;;;;5059375;28;810;-46
2022/01/30 07:24:20;;;;;;;;;;;12.00;99.90;;;;;;5041535;28;1124;-53
2022/01/30 07:26:47;;;;;;;;;;;12.00;99.90;;;;;;5059106;28;827;-53
2022/01/30 07:29:14;;;;;;;;;;;12.00;99.90;;;;;;5059103;28;857;-46
2022/01/30 07:31:40;;;;;;;;;;;12.10;99.90;;;;;;5059437;28;844;-52
2022/01/30 07:34:05;;;;;;;;;;;12.10;99.90;;;;;;5059177;28;1906;-53
2022/01/30 07:36:33;;;;;;;;;;;12.10;99.90;;;;;;5059003;28;766;-53
2022/01/30 07:39:00;;;;;;;;;;;12.20;99.90;;;;;;5058864;28;878;-53
2022/01/30 07:41:26;;;;;;;;;;;12.20;99.90;;;;;;5058729;28;874;-53
2022/01/30 07:43:54;;;;;;;;;;;12.30;99.90;;;;;;5058867;28;766;-53
2022/01/30 07:46:20;;;;;;;;;;;12.40;99.90;;;;;;5059124;28;805;-53
2022/01/30 07:48:47;;;;;;;;;;;12.50;99.90;;;;;;5058783;28;987;-47
2022/01/30 07:51:13;;;;;;;;;;;12.50;99.90;;;;;;5058432;28;988;-46
2022/01/30 07:53:39;;;;;;;;;;;12.60;99.90;;;;;;5058125;28;1905;-46
2022/01/30 07:56:05;;;;;;;;;;;12.60;99.90;;;;;;5058363;28;849;-46
2022/01/30 07:58:31;;;;;;;;;;;12.70;99.90;;;;;;5057925;28;960;-46
2022/01/30 08:00:57;;;;;;;;;;;12.70;99.90;;;;;;5058175;28;1232;-48
2022/01/30 08:03:23;;;;;;;;;;;12.80;99.90;;;;;;5058677;28;803;-46
2022/01/30 08:05:49;;;;;;;;;;;12.80;99.90;;;;;;5058389;28;987;-46
2022/01/30 08:08:15;;;;;;;;;;;12.80;99.90;;;;;;5052554;28;851;-54
2022/01/30 08:10:41;;;;;;;;;;;12.90;99.90;;;;;;5058210;28;927;-46
2022/01/30 08:13:07;;;;;;;;;;;13.00;99.90;;;;;;5058280;28;1955;-47
2022/01/30 08:15:33;;;;;;;;;;;13.10;99.90;;;;;;5058242;28;852;-53
2022/01/30 08:17:59;;;;;;;;;;;13.10;99.90;;;;;;5058146;28;839;-46
2022/01/30 08:20:27;;;;;;;;;;;13.20;99.90;;;;;;5058511;28;793;-46
2022/01/30 08:22:53;;;;;;;;;;;13.30;99.90;;;;;;5057352;28;988;-53
2022/01/30 08:25:21;;;;;;;;;;;13.40;99.90;;;;;;5057769;28;830;-53
2022/01/30 08:27:48;;;;;;;;;;;13.50;99.90;;;;;;5054923;28;1301;-46
2022/01/30 08:30:14;;;;;;;;;;;13.60;99.90;;;;;;5040395;28;857;-53
2022/01/30 08:32:41;;;;;;;;;;;13.70;99.90;;;;;;5057549;28;1910;-52
2022/01/30 08:35:09;;;;;;;;;;;13.80;99.90;;;;;;5040204;28;877;-53
2022/01/30 08:37:35;;;;;;;;;;;13.90;99.90;;;;;;5058038;28;874;-53
2022/01/30 08:40:05;;;;;;;;;;;14.00;99.90;;;;;;5057385;28;980;-53
2022/01/30 08:42:31;;;;;;;;;;;14.00;99.90;;;;;;5057139;28;1030;-46
2022/01/30 08:44:57;;;;;;;;;;;14.20;99.90;;;;;;5057961;28;872;-46
2022/01/30 08:47:23;;;;;;;;;;;14.70;99.90;;;;;;5057606;28;818;-53
2022/01/30 08:49:49;;;;;;;;;;;15.30;99.90;;;;;;5055312;28;1266;-46
2022/01/30 08:52:16;;;;;;;;;;;15.30;99.90;;;;;;5057567;28;825;-46
2022/01/30 08:54:42;;;;;;;;;;;15.00;99.90;;;;;;5056861;28;1902;-46
2022/01/30 08:57:09;;;;;;;;;;;14.80;99.90;;;;;;5057475;28;991;-46
2022/01/30 08:59:35;;;;;;;;;;;14.80;99.90;;;;;;5056781;28;994;-53
2022/01/30 09:02:02;;;;;;;;;;;14.70;99.90;;;;;;5006555;28;980;-53
2022/01/30 09:04:28;;;;;;;;;;;14.70;99.90;;;;;;5057444;28;782;-52
2022/01/30 09:06:54;;;;;;;;;;;14.70;99.90;;;;;;5057527;28;777;-53
2022/01/30 09:09:21;;;;;;;;;;;14.80;99.90;;;;;;5057254;28;770;-52
2022/01/30 09:11:47;;;;;;;;;;;14.80;99.90;;;;;;5038612;28;876;-53
2022/01/30 09:14:14;;;;;;;;;;;14.80;99.90;;;;;;5057095;28;1963;-53
2022/01/30 09:16:42;;;;;;;;;;;14.90;99.90;;;;;;5056673;28;861;-46
2022/01/30 09:19:09;;;;;;;;;;;14.90;99.90;;;;;;5039950;28;997;-46
2022/01/30 09:21:35;;;;;;;;;;;15.00;99.90;;;;;;5057106;28;875;-53
2022/01/30 09:24:01;;;;;;;;;;;15.00;99.90;;;;;;5056837;28;786;-53
2022/01/30 09:26:27;;;;;;;;;;;15.00;99.90;;;;;;5038809;28;924;-46
2022/01/30 09:28:53;;;;;;;;;;;15.10;99.90;;;;;;5039169;28;893;-46
2022/01/30 09:31:19;;;;;;;;;;;15.10;99.90;;;;;;5057098;28;1094;-53
2022/01/30 09:33:46;;;;;;;;;;;15.10;99.90;;;;;;5056778;28;1902;-46
2022/01/30 09:36:13;;;;;;;;;;;15.10;99.90;;;;;;5056741;28;916;-46
2022/01/30 09:38:41;;;;;;;;;;;15.10;99.90;;;;;;5056568;28;841;-46
2022/01/30 09:41:08;;;;;;;;;;;15.10;99.90;;;;;;5056560;28;859;-53
2022/01/30 09:43:35;;;;;;;;;;;15.10;99.90;;;;;;5022083;28;978;-46
2022/01/30 09:46:02;;;;;;;;;;;15.10;99.90;;;;;;5039159;28;832;-46
2022/01/30 09:48:30;;;;;;;;;;;15.10;99.90;;;;;;5037779;28;937;-53
2022/01/30 09:50:57;;;;;;;;;;;15.10;99.90;;;;;;5056459;28;1329;-53
2022/01/30 09:53:23;;;;;;;;;;;15.10;99.90;;;;;;5038480;28;1902;-47
2022/01/30 09:55:49;;;;;;;;;;;15.10;99.90;;;;;;5056302;28;778;-46
2022/01/30 09:58:15;;;;;;;;;;;15.10;99.90;;;;;;5056104;28;905;-46
2022/01/30 10:00:41;;;;;;;;;;;15.10;99.90;;;;;;5056205;28;1691;-46
2022/01/30 10:03:08;;;;;;;;;;;15.10;99.90;;;;;;5021410;28;1165;-46
2022/01/30 10:05:36;;;;;;;;;;;15.10;99.90;;;;;;5055939;28;885;-46
2022/01/30 10:08:03;;;;;;;;;;;15.00;99.90;;;;;;5055542;28;924;-46
2022/01/30 10:10:30;;;;;;;;;;;15.00;99.90;;;;;;5038113;28;897;-46
2022/01/30 10:13:05;;;;;;;;;;;15.00;99.90;;;;;;5055481;28;1906;-46
2022/01/30 10:15:46;;;;;;;;;;;15.00;99.90;;;;;;5055680;28;919;-46
2022/01/30 10:18:14;;;;;;;;;;;15.00;99.90;;;;;;5038736;28;944;-52
2022/01/30 10:20:41;;;;;;;;;;;15.00;99.90;;;;;;5056105;28;849;-46
2022/01/30 10:23:09;;;;;;;;;;;15.00;99.90;;;;;;5055930;28;860;-46
2022/01/30 10:25:37;;;;;;;;;;;15.10;99.90;;;;;;5055567;28;1007;-46
2022/01/30 10:28:12;;;;;;;;;;;15.10;99.90;;;;;;5053982;28;1210;-53
2022/01/30 10:30:48;;;;;;;;;;;15.10;99.90;;;;;;5055613;28;982;-46
2022/01/30 10:33:15;;;;;;;;;;;15.10;99.90;;;;;;5050403;28;1902;-46
2022/01/30 10:35:49;;;;;;;;;;;15.10;99.90;;;;;;5056964;28;1477;-46
2022/01/30 10:38:19;;;;;;;;;;;15.10;99.90;;;;;;5058156;28;1314;-46
2022/01/30 10:40:51;;;;;;;;;;;15.10;99.90;;;;;;5055049;28;889;-46
2022/01/30 10:43:17;;;;;;;;;;;15.10;99.90;;;;;;5052000;28;1336;-52
2022/01/30 10:45:45;;;;;;;;;;;15.10;99.90;;;;;;5055965;28;801;-46
2022/01/30 10:48:23;;;;;;;;;;;15.10;99.90;;;;;;5037896;28;1003;-46
2022/01/30 10:50:49;;;;;;;;;;;15.10;99.90;;;;;;5055965;28;831;-53
2022/01/30 10:53:16;;;;;;;;;;;15.10;99.90;;;;;;5063964;28;1946;-46
2022/01/30 10:55:45;;;;;;;;;;;15.10;99.90;;;;;;5058926;28;860;-46
2022/01/30 10:58:13;;;;;;;;;;;15.10;99.90;;;;;;5055116;28;992;-46
2022/01/30 11:00:41;;;;;;;;;;;15.10;99.90;;;;;;5055416;28;1500;-46
2022/01/30 11:03:08;;;;;;;;;;;15.10;99.90;;;;;;5055533;28;774;-46
2022/01/30 11:05:53;;;;;;;;;;;15.10;99.90;;;;;;5055689;28;790;-46
2022/01/30 11:08:23;;;;;;;;;;;15.10;99.90;;;;;;5054961;28;994;-46
2022/01/30 11:11:10;;;;;;;;;;;15.10;99.90;;;;;;5055149;28;895;-46
2022/01/30 11:13:48;;;;;;;;;;;15.10;99.90;;;;;;5021072;28;1973;-53
2022/01/30 11:18:59;;;;;;;;;;;15.10;99.90;;;;;;5055498;28;798;-46
2022/01/30 11:21:26;;;;;;;;;;;15.10;99.90;;;;;;5055040;28;885;-46
2022/01/30 11:23:53;;;;;;;;;;;15.10;99.90;;;;;;5055262;28;793;-46
2022/01/30 11:26:20;;;;;;;;;;;15.10;99.90;;;;;;5054554;28;851;-46
2022/01/30 11:28:45;;;;;;;;;;;15.10;99.90;;;;;;5055470;28;766;-53
2022/01/30 11:31:16;;;;;;;;;;;15.10;99.90;;;;;;5055315;28;801;-53
2022/01/30 11:33:46;;;;;;;;;;;15.10;99.90;;;;;;5055198;28;1906;-46
2022/01/30 11:36:13;;;;;;;;;;;15.10;99.90;;;;;;5057715;28;906;-46
2022/01/30 11:38:42;;;;;;;;;;;15.10;99.90;;;;;;5058938;28;884;-46
2022/01/30 11:41:16;;;;;;;;;;;15.10;99.90;;;;;;5058719;28;1004;-46
2022/01/30 11:44:01;;;;;;;;;;;15.10;99.90;;;;;;5058930;28;765;-46
2022/01/30 11:46:28;;;;;;;;;;;15.10;99.90;;;;;;5059165;28;1148;-46
2022/01/30 11:49:12;;;;;;;;;;;15.10;99.90;;;;;;5058858;28;798;-53
2022/01/30 11:51:56;;;;;;;;;;;15.10;99.90;;;;;;5058345;28;844;-53
2022/01/30 11:54:32;;;;;;;;;;;15.10;99.90;;;;;;5058651;28;1959;-53
2022/01/30 11:56:58;;;;;;;;;;;15.00;99.90;;;;;;5058724;28;971;-53
2022/01/30 11:59:42;;;;;;;;;;;15.00;99.90;;;;;;5058422;28;1383;-46
2022/01/30 12:02:21;;;;;;;;;;;15.00;99.90;;;;;;5058707;28;763;-46
2022/01/30 12:04:55;;;;;;;;;;;15.00;99.90;;;;;;5057881;28;881;-46
2022/01/30 12:07:41;;;;;;;;;;;15.00;99.90;;;;;;5058679;28;785;-46
2022/01/30 12:10:16;;;;;;;;;;;15.10;99.90;;;;;;5057911;28;1148;-46
2022/01/30 12:12:50;;;;;;;;;;;15.10;99.90;;;;;;5007481;28;1057;-46
2022/01/30 12:15:35;;;;;;;;;;;15.10;99.90;;;;;;5035305;28;1977;-46
2022/01/30 12:18:02;;;;;;;;;;;15.10;99.90;;;;;;5058072;28;1337;-46
2022/01/30 12:20:29;;;;;;;;;;;15.10;99.90;;;;;;5058178;28;753;-53
2022/01/30 12:22:56;;;;;;;;;;;15.10;99.90;;;;;;5040435;28;900;-53
2022/01/30 12:25:41;;;;;;;;;;;15.10;99.90;;;;;;5057224;28;906;-53
2022/01/30 12:28:07;;;;;;;;;;;15.10;99.90;;;;;;5040029;28;1010;-53
2022/01/30 12:30:39;;;;;;;;;;;15.10;99.90;;;;;;5040146;28;995;-46
2022/01/30 12:33:24;;;;;;;;;;;15.10;99.90;;;;;;5061482;28;837;-53
2022/01/30 12:35:50;;;;;;;;;;;15.10;99.90;;;;;;5056111;28;1189;-46
2022/01/30 12:38:16;;;;;;;;;;;15.10;99.90;;;;;;5057970;28;868;-46
2022/01/30 12:40:45;;;;;;;;;;;15.10;99.90;;;;;;5057530;28;941;-46
2022/01/30 12:43:11;;;;;;;;;;;15.10;99.90;;;;;;5048815;28;1265;-46
2022/01/30 12:45:37;;;;;;;;;;;15.10;99.90;;;;;;4996822;28;949;-46
2022/01/30 12:48:07;;;;;;;;;;;15.00;99.90;;;;;;4995394;28;921;-53
2022/01/30 12:50:35;;;;;;;;;;;15.00;99.90;;;;;;4996757;28;951;-46
2022/01/30 12:53:02;;;;;;;;;;;15.00;99.90;;;;;;4995702;28;844;-46
2022/01/30 12:55:28;;;;;;;;;;;15.00;99.90;;;;;;4996454;28;1969;-46
2022/01/30 12:57:54;;;;;;;;;;;15.00;99.90;;;;;;4996442;28;897;-46
2022/01/30 13:00:21;;;;;;;;;;;15.00;99.90;;;;;;4996132;28;1127;-53
2022/01/30 13:03:00;;;;;;;;;;;15.00;99.90;;;;;;4996582;28;807;-53
2022/01/30 13:05:27;;;;;;;;;;;15.00;99.90;;;;;;4991018;28;905;-53
2022/01/30 13:07:54;;;;;;;;;;;15.00;99.90;;;;;;4990076;28;864;-53
2022/01/30 13:10:21;;;;;;;;;;;15.00;99.90;;;;;;4995829;28;1037;-53
2022/01/30 13:12:54;;;;;;;;;;;15.00;99.90;;;;;;4995748;28;1111;-53
2022/01/30 13:15:22;;;;;;;;;;;15.00;99.90;;;;;;4975247;28;1981;-53
2022/01/30 13:17:50;;;;;;;;;;;14.90;99.90;;;;;;5030918;28;888;-53
2022/01/30 13:20:21;;;;;;;;;;;14.90;99.90;;;;;;5031600;28;802;-53
2022/01/30 13:22:47;;;;;;;;;;;14.90;99.90;;;;;;5032055;28;877;-53
2022/01/30 13:25:14;;;;;;;;;;;14.90;99.90;;;;;;5037118;28;899;-46
2022/01/30 13:27:41;;;;;;;;;;;14.90;99.90;;;;;;5013808;28;1099;-46
2022/01/30 13:30:08;;;;;;;;;;;14.90;99.90;;;;;;5031177;28;856;-46
2022/01/30 13:32:37;;;;;;;;;;;14.90;99.90;;;;;;5036927;28;1030;-53
2022/01/30 13:35:09;;;;;;;;;;;14.90;99.90;;;;;;5029769;28;1969;-53
2022/01/30 13:37:37;;;;;;;;;;;14.90;99.90;;;;;;5036744;28;807;-53
2022/01/30 13:42:59;;;;;;;;;;;14.90;99.90;;;;;;5036544;28;760;-53
2022/01/30 13:48:01;;;;;;;;;;;14.90;99.90;;;;;;5036729;28;790;-53
2022/01/30 13:50:41;;;;;;;;;;;14.90;99.90;;;;;;5036531;28;770;-53
2022/01/30 13:53:08;;;;;;;;;;;14.90;99.90;;;;;;5036406;28;931;-53
2022/01/30 13:55:36;;;;;;;;;;;14.90;99.90;;;;;;5035743;28;1902;-54
2022/01/30 13:58:03;;;;;;;;;;;14.90;99.90;;;;;;5035935;28;1002;-53
2022/01/30 14:00:33;;;;;;;;;;;14.90;99.90;;;;;;5046867;28;1024;-53
2022/01/30 14:03:04;;;;;;;;;;;14.90;99.90;;;;;;5056083;28;877;-53
2022/01/30 14:05:41;;;;;;;;;;;14.90;99.90;;;;;;5056426;28;887;-54
2022/01/30 14:08:11;;;;;;;;;;;14.80;99.90;;;;;;5056304;28;867;-53
2022/01/30 14:10:39;;;;;;;;;;;14.80;99.90;;;;;;5055960;28;896;-53
2022/01/30 14:13:11;;;;;;;;;;;14.80;99.90;;;;;;5056164;28;983;-53
2022/01/30 14:15:37;;;;;;;;;;;14.80;99.90;;;;;;5055371;28;1906;-53
2022/01/30 14:18:06;;;;;;;;;;;14.80;99.90;;;;;;5056046;28;797;-53
2022/01/30 14:20:33;;;;;;;;;;;14.80;99.90;;;;;;5056158;28;773;-53
2022/01/30 14:23:05;;;;;;;;;;;14.80;99.90;;;;;;5055994;28;1031;-54
2022/01/30 14:25:32;;;;;;;;;;;14.80;99.90;;;;;;5055351;28;992;-53
2022/01/30 14:27:59;;;;;;;;;;;14.80;99.90;;;;;;5055171;28;1021;-53
2022/01/30 14:30:35;;;;;;;;;;;14.80;99.90;;;;;;5037928;28;889;-53
2022/01/30 14:33:01;;;;;;;;;;;14.80;99.90;;;;;;5054819;28;1275;-47
2022/01/30 14:35:34;;;;;;;;;;;14.80;99.90;;;;;;5003958;28;1898;-46
2022/01/30 14:38:00;;;;;;;;;;;14.80;99.90;;;;;;5055032;28;893;-47
2022/01/30 14:40:26;;;;;;;;;;;14.80;99.90;;;;;;5054359;28;1332;-47
2022/01/30 14:42:52;;;;;;;;;;;14.80;99.90;;;;;;5055379;28;858;-46
2022/01/30 14:45:18;;;;;;;;;;;14.70;99.90;;;;;;5055946;28;881;-53
2022/01/30 14:47:44;;;;;;;;;;;14.70;99.90;;;;;;5055646;28;801;-47
2022/01/30 14:50:10;;;;;;;;;;;14.70;99.90;;;;;;5038103;28;2198;-53
2022/01/30 14:52:37;;;;;;;;;;;14.70;99.90;;;;;;5055616;28;888;-46
2022/01/30 14:55:05;;;;;;;;;;;14.70;99.90;;;;;;5054975;28;1905;-46
2022/01/30 14:57:31;;;;;;;;;;;14.70;99.90;;;;;;5055692;28;770;-46
2022/01/30 14:59:56;;;;;;;;;;;14.70;99.90;;;;;;5055431;28;1171;-53
2022/01/30 15:02:22;;;;;;;;;;;14.70;99.90;;;;;;5055781;28;871;-53
2022/01/30 15:04:48;;;;;;;;;;;14.70;99.90;;;;;;5055438;28;849;-53
2022/01/30 15:07:14;;;;;;;;;;;14.70;99.90;;;;;;5055502;28;865;-53
2022/01/30 15:09:41;;;;;;;;;;;14.70;99.90;;;;;;5055756;28;790;-53
2022/01/30 15:12:12;;;;;;;;;;;14.70;99.90;;;;;;5059331;28;761;-46
2022/01/30 15:14:40;;;;;;;;;;;14.70;99.90;;;;;;5059418;28;1979;-46
2022/01/30 15:17:18;;;;;;;;;;;14.60;99.90;;;;;;5059353;28;905;-53
2022/01/30 15:19:44;;;;;;;;;;;14.60;99.90;;;;;;5041419;28;886;-53
2022/01/30 15:22:12;;;;;;;;;;;14.60;99.90;;;;;;5058602;28;1026;-53
2022/01/30 15:24:40;;;;;;;;;;;14.60;99.90;;;;;;5059164;28;761;-53
2022/01/30 15:27:07;;;;;;;;;;;14.60;99.90;;;;;;5058844;28;829;-53
2022/01/30 15:29:33;;;;;;;;;;;14.60;99.90;;;;;;5059171;28;923;-53
2022/01/30 15:31:59;;;;;;;;;;;14.60;99.90;;;;;;5054012;28;849;-53
2022/01/30 15:34:25;;;;;;;;;;;14.60;99.90;;;;;;5058961;28;1910;-53
2022/01/30 15:36:51;;;;;;;;;;;14.60;99.90;;;;;;5058930;28;876;-53
2022/01/30 15:39:17;;;;;;;;;;;14.50;99.90;;;;;;5041064;28;912;-52
2022/01/30 15:41:43;;;;;;;;;;;14.50;99.90;;;;;;5059173;28;797;-53
2022/01/30 15:44:13;;;;;;;;;;;14.50;99.90;;;;;;5039483;28;962;-53
2022/01/30 15:49:24;;;;;;;;;;;14.60;99.90;;;;;;5054741;28;789;-52
2022/01/30 15:51:50;;;;;;;;;;;14.60;99.90;;;;;;5058827;28;853;-53
2022/01/30 15:54:16;;;;;;;;;;;14.60;99.90;;;;;;5058720;28;1912;-53
2022/01/30 15:56:43;;;;;;;;;;;14.60;99.90;;;;;;5053865;28;1302;-46